sensor_id;sensor_type;location;lat;lon;timestamp;temperature;humidity
66608;DHT22;53462;39.616;8.824;2023-04-01T00:02:01;14.70;99.90
66608;DHT22;53462;39.616;8.824;2023-04-01T00:04:26;14.70;99.90
66608;DHT22;53462;39.616;8.824;2023-04-01T00:06:52;14.70;99.90
66608;DHT22;53462;39.616;8.824;2023-04-01T00:09:19;14.60;99.90
66608;DHT22;53462;39.616;8.824;2023-04-01T00:11:45;14.70;99.90
66608;DHT22;53462;39.616;8.824;2023-04-01T00:14:11;14.70;99.90
66608;DHT22;53462;39.616;8.824;2023-04-01T00:16:37;14.70;99.90
66608;DHT22;53462;39.616;8.824;2023-04-01T00:19:03;14.60;99.90
66608;DHT22;53462;39.616;8.824;2023-04-01T00:21:30;14.60;99.90
66608;DHT22;53462;39.616;8.824;2023-04-01T00:23:55;14.60;99.90
66608;DHT22;53462;39.616;8.824;2023-04-01T00:26:21;14.60;99.90
66608;DHT22;53462;39.616;8.824;2023-04-01T00:28:48;14.60;99.90
66608;DHT22;53462;39.616;8.824;2023-04-01T00:31:14;14.60;99.90
66608;DHT22;53462;39.616;8.824;2023-04-01T00:33:40;14.70;99.90
66608;DHT22;53462;39.616;8.824;2023-04-01T00:36:12;14.70;99.90
66608;DHT22;53462;39.616;8.824;2023-04-01T00:38:38;14.50;99.90
66608;DHT22;53462;39.616;8.824;2023-04-01T00:41:05;14.50;99.90
66608;DHT22;53462;39.616;8.824;2023-04-01T00:43:31;14.60;99.90
66608;DHT22;53462;39.616;8.824;2023-04-01T00:45:58;14.70;99.90
66608;DHT22;53462;39.616;8.824;2023-04-01T00:48:31;14.70;99.90
66608;DHT22;53462;39.616;8.824;2023-04-01T00:51:09;14.70;99.90
66608;DHT22;53462;39.616;8.824;2023-04-01T00:53:40;14.60;99.90
66608;DHT22;53462;39.616;8.824;2023-04-01T00:56:13;14.50;99.90
66608;DHT22;53462;39.616;8.824;2023-04-01T00:58:44;14.50;99.90
66608;DHT22;53462;39.616;8.824;2023-04-01T01:01:12;14.50;99.90
66608;DHT22;53462;39.616;8.824;2023-04-01T01:03:38;14.50;99.90
66608;DHT22;53462;39.616;8.824;2023-04-01T01:11:11;14.50;99.90
66608;DHT22;53462;39.616;8.824;2023-04-01T01:15:00;14.50;99.90
66608;DHT22;53462;39.616;8.824;2023-04-01T01:17:07;14.40;99.90
66608;DHT22;53462;39.616;8.824;2023-04-01T01:20:04;14.50;99.90
66608;DHT22;53462;39.616;8.824;2023-04-01T01:36:40;14.10;99.90
66608;DHT22;53462;39.616;8.824;2023-04-01T01:39:09;14.20;99.90
66608;DHT22;53462;39.616;8.824;2023-04-01T01:41:38;14.20;99.90
66608;DHT22;53462;39.616;8.824;2023-04-01T01:44:07;14.10;99.90
66608;DHT22;53462;39.616;8.824;2023-04-01T01:46:34;14.10;99.90
66608;DHT22;53462;39.616;8.824;2023-04-01T01:49:03;14.10;99.90
66608;DHT22;53462;39.616;8.824;2023-04-01T01:51:30;14.00;99.90
66608;DHT22;53462;39.616;8.824;2023-04-01T01:53:57;14.00;99.90
66608;DHT22;53462;39.616;8.824;2023-04-01T01:56:26;14.00;99.90
66608;DHT22;53462;39.616;8.824;2023-04-01T01:58:58;14.00;99.90
66608;DHT22;53462;39.616;8.824;2023-04-01T02:01:31;14.00;99.90
66608;DHT22;53462;39.616;8.824;2023-04-01T02:04:08;13.90;99.90
66608;DHT22;53462;39.616;8.824;2023-04-01T02:06:39;13.80;99.90
66608;DHT22;53462;39.616;8.824;2023-04-01T02:09:08;13.80;99.90
66608;DHT22;53462;39.616;8.824;2023-04-01T02:11:46;13.80;99.90
66608;DHT22;53462;39.616;8.824;2023-04-01T02:17:19;13.70;99.90
66608;DHT22;53462;39.616;8.824;2023-04-01T02:20:10;13.70;99.90
66608;DHT22;53462;39.616;8.824;2023-04-01T02:22:41;13.70;99.90
66608;DHT22;53462;39.616;8.824;2023-04-01T02:25:14;13.80;99.90
66608;DHT22;53462;39.616;8.824;2023-04-01T02:27:43;13.80;99.90
66608;DHT22;53462;39.616;8.824;2023-04-01T02:30:11;13.80;99.90
66608;DHT22;53462;39.616;8.824;2023-04-01T02:32:38;13.80;99.90
66608;DHT22;53462;39.616;8.824;2023-04-01T02:35:13;13.80;99.90
66608;DHT22;53462;39.616;8.824;2023-04-01T02:37:42;13.90;99.90
66608;DHT22;53462;39.616;8.824;2023-04-01T02:40:12;13.80;99.90
66608;DHT22;53462;39.616;8.824;2023-04-01T02:42:38;13.80;99.90
66608;DHT22;53462;39.616;8.824;2023-04-01T02:45:04;13.80;99.90
66608;DHT22;53462;39.616;8.824;2023-04-01T02:47:31;13.80;99.90
66608;DHT22;53462;39.616;8.824;2023-04-01T02:49:57;13.80;99.90
66608;DHT22;53462;39.616;8.824;2023-04-01T02:52:27;13.80;99.90
66608;DHT22;53462;39.616;8.824;2023-04-01T02:54:55;13.80;99.90
66608;DHT22;53462;39.616;8.824;2023-04-01T02:57:22;13.90;99.90
66608;DHT22;53462;39.616;8.824;2023-04-01T02:59:48;13.90;99.90
66608;DHT22;53462;39.616;8.824;2023-04-01T03:02:14;14.00;99.90
66608;DHT22;53462;39.616;8.824;2023-04-01T03:04:41;14.00;99.90
66608;DHT22;53462;39.616;8.824;2023-04-01T03:07:07;14.00;99.90
66608;DHT22;53462;39.616;8.824;2023-04-01T03:09:36;14.10;99.90
66608;DHT22;53462;39.616;8.824;2023-04-01T03:12:02;14.00;99.90
66608;DHT22;53462;39.616;8.824;2023-04-01T03:14:31;14.10;99.90
66608;DHT22;53462;39.616;8.824;2023-04-01T03:16:57;14.10;99.90
66608;DHT22;53462;39.616;8.824;2023-04-01T03:19:23;14.10;99.90
66608;DHT22;53462;39.616;8.824;2023-04-01T03:21:49;14.10;99.90
66608;DHT22;53462;39.616;8.824;2023-04-01T03:24:15;14.10;99.90
66608;DHT22;53462;39.616;8.824;2023-04-01T03:26:41;14.10;99.90
66608;DHT22;53462;39.616;8.824;2023-04-01T03:29:08;14.10;99.90
66608;DHT22;53462;39.616;8.824;2023-04-01T03:31:33;14.00;99.90
66608;DHT22;53462;39.616;8.824;2023-04-01T03:34:00;13.90;99.90
66608;DHT22;53462;39.616;8.824;2023-04-01T03:36:26;13.90;99.90
66608;DHT22;53462;39.616;8.824;2023-04-01T03:38:52;13.90;99.90
66608;DHT22;53462;39.616;8.824;2023-04-01T03:41:25;13.80;99.90
66608;DHT22;53462;39.616;8.824;2023-04-01T03:43:53;13.80;99.90
66608;DHT22;53462;39.616;8.824;2023-04-01T03:46:20;13.80;99.90
66608;DHT22;53462;39.616;8.824;2023-04-01T03:48:46;13.60;99.90
66608;DHT22;53462;39.616;8.824;2023-04-01T03:51:12;13.50;99.90
66608;DHT22;53462;39.616;8.824;2023-04-01T03:53:38;13.40;99.90
66608;DHT22;53462;39.616;8.824;2023-04-01T03:56:06;13.40;99.90
66608;DHT22;53462;39.616;8.824;2023-04-01T03:58:35;13.30;99.90
66608;DHT22;53462;39.616;8.824;2023-04-01T04:01:02;13.30;99.90
66608;DHT22;53462;39.616;8.824;2023-04-01T04:03:29;13.20;99.90
66608;DHT22;53462;39.616;8.824;2023-04-01T04:05:55;13.20;99.90
66608;DHT22;53462;39.616;8.824;2023-04-01T04:08:22;13.10;99.90
66608;DHT22;53462;39.616;8.824;2023-04-01T04:10:54;13.10;99.90
66608;DHT22;53462;39.616;8.824;2023-04-01T04:13:21;13.00;99.90
66608;DHT22;53462;39.616;8.824;2023-04-01T04:15:54;13.00;99.90
66608;DHT22;53462;39.616;8.824;2023-04-01T04:18:20;13.00;99.90
66608;DHT22;53462;39.616;8.824;2023-04-01T04:20:47;13.00;99.90
66608;DHT22;53462;39.616;8.824;2023-04-01T04:23:16;13.00;99.90
66608;DHT22;53462;39.616;8.824;2023-04-01T04:25:42;12.90;99.90
66608;DHT22;53462;39.616;8.824;2023-04-01T04:28:18;12.80;99.90
66608;DHT22;53462;39.616;8.824;2023-04-01T04:30:44;12.80;99.90
66608;DHT22;53462;39.616;8.824;2023-04-01T04:33:10;12.80;99.90
66608;DHT22;53462;39.616;8.824;2023-04-01T04:35:36;12.70;99.90
66608;DHT22;53462;39.616;8.824;2023-04-01T04:38:03;12.70;99.90
66608;DHT22;53462;39.616;8.824;2023-04-01T04:40:29;12.70;99.90
66608;DHT22;53462;39.616;8.824;2023-04-01T04:42:55;12.60;99.90
66608;DHT22;53462;39.616;8.824;2023-04-01T04:45:21;12.50;99.90
66608;DHT22;53462;39.616;8.824;2023-04-01T04:47:53;12.40;99.90
66608;DHT22;53462;39.616;8.824;2023-04-01T04:50:19;12.40;99.90
66608;DHT22;53462;39.616;8.824;2023-04-01T04:52:45;12.30;99.90
66608;DHT22;53462;39.616;8.824;2023-04-01T04:55:11;12.30;99.90
66608;DHT22;53462;39.616;8.824;2023-04-01T04:57:38;12.30;99.90
66608;DHT22;53462;39.616;8.824;2023-04-01T05:00:05;12.30;99.90
66608;DHT22;53462;39.616;8.824;2023-04-01T05:02:49;12.20;99.90
66608;DHT22;53462;39.616;8.824;2023-04-01T05:05:15;12.20;99.90
66608;DHT22;53462;39.616;8.824;2023-04-01T05:07:41;12.20;99.90
66608;DHT22;53462;39.616;8.824;2023-04-01T05:10:07;12.20;99.90
66608;DHT22;53462;39.616;8.824;2023-04-01T05:12:33;12.10;99.90
66608;DHT22;53462;39.616;8.824;2023-04-01T05:15:04;12.10;99.90
66608;DHT22;53462;39.616;8.824;2023-04-01T05:17:31;12.20;99.90
66608;DHT22;53462;39.616;8.824;2023-04-01T05:19:57;12.30;99.90
66608;DHT22;53462;39.616;8.824;2023-04-01T05:22:23;12.30;99.90
66608;DHT22;53462;39.616;8.824;2023-04-01T05:24:49;12.40;99.90
66608;DHT22;53462;39.616;8.824;2023-04-01T05:27:16;12.40;99.90
66608;DHT22;53462;39.616;8.824;2023-04-01T05:29:42;12.40;99.90
66608;DHT22;53462;39.616;8.824;2023-04-01T05:32:27;12.40;99.90
66608;DHT22;53462;39.616;8.824;2023-04-01T05:34:53;12.50;99.90
66608;DHT22;53462;39.616;8.824;2023-04-01T05:37:19;12.40;99.90
66608;DHT22;53462;39.616;8.824;2023-04-01T05:39:45;12.40;99.90
66608;DHT22;53462;39.616;8.824;2023-04-01T05:42:11;12.50;99.90
66608;DHT22;53462;39.616;8.824;2023-04-01T05:44:39;12.60;99.90
66608;DHT22;53462;39.616;8.824;2023-04-01T05:47:05;12.60;99.90
66608;DHT22;53462;39.616;8.824;2023-04-01T05:49:33;12.80;99.90
66608;DHT22;53462;39.616;8.824;2023-04-01T05:52:00;12.80;99.90
66608;DHT22;53462;39.616;8.824;2023-04-01T05:54:26;13.00;99.90
66608;DHT22;53462;39.616;8.824;2023-04-01T05:56:52;13.10;99.90
66608;DHT22;53462;39.616;8.824;2023-04-01T05:59:19;13.10;99.90
66608;DHT22;53462;39.616;8.824;2023-04-01T06:01:45;13.20;99.90
66608;DHT22;53462;39.616;8.824;2023-04-01T06:04:16;13.30;99.90
66608;DHT22;53462;39.616;8.824;2023-04-01T06:06:44;13.40;99.90
66608;DHT22;53462;39.616;8.824;2023-04-01T06:09:28;13.40;99.90
66608;DHT22;53462;39.616;8.824;2023-04-01T06:46:31;16.00;99.90
66608;DHT22;53462;39.616;8.824;2023-04-01T06:55:47;16.60;96.30
66608;DHT22;53462;39.616;8.824;2023-04-01T06:58:26;16.60;93.30
66608;DHT22;53462;39.616;8.824;2023-04-01T07:00:56;17.00;92.40
66608;DHT22;53462;39.616;8.824;2023-04-01T07:03:42;17.20;90.50
66608;DHT22;53462;39.616;8.824;2023-04-01T07:06:53;17.80;88.60
66608;DHT22;53462;39.616;8.824;2023-04-01T07:09:09;18.40;85.00
66608;DHT22;53462;39.616;8.824;2023-04-01T07:12:06;17.90;85.60
66608;DHT22;53462;39.616;8.824;2023-04-01T07:14:54;17.70;85.90
66608;DHT22;53462;39.616;8.824;2023-04-01T07:20:11;18.10;85.60
66608;DHT22;53462;39.616;8.824;2023-04-01T07:22:42;18.40;83.80
66608;DHT22;53462;39.616;8.824;2023-04-01T07:25:35;18.50;82.00
66608;DHT22;53462;39.616;8.824;2023-04-01T07:28:32;18.30;81.80
66608;DHT22;53462;39.616;8.824;2023-04-01T07:34:09;18.90;79.20
66608;DHT22;53462;39.616;8.824;2023-04-01T07:36:39;19.50;77.40
66608;DHT22;53462;39.616;8.824;2023-04-01T07:44:34;22.60;56.50
66608;DHT22;53462;39.616;8.824;2023-04-01T07:47:15;22.40;56.80
66608;DHT22;53462;39.616;8.824;2023-04-01T07:50:11;22.10;56.30
66608;DHT22;53462;39.616;8.824;2023-04-01T07:52:48;21.60;59.70
66608;DHT22;53462;39.616;8.824;2023-04-01T07:55:31;21.80;57.60
66608;DHT22;53462;39.616;8.824;2023-04-01T07:58:18;22.70;53.90
66608;DHT22;53462;39.616;8.824;2023-04-01T08:00:59;21.70;53.70
66608;DHT22;53462;39.616;8.824;2023-04-01T08:06:32;21.80;53.60
66608;DHT22;53462;39.616;8.824;2023-04-01T08:09:58;22.30;52.30
66608;DHT22;53462;39.616;8.824;2023-04-01T08:16:33;22.90;48.40
66608;DHT22;53462;39.616;8.824;2023-04-01T08:24:41;21.20;52.40
66608;DHT22;53462;39.616;8.824;2023-04-01T08:27:39;20.70;55.50
66608;DHT22;53462;39.616;8.824;2023-04-01T08:30:23;20.50;55.70
66608;DHT22;53462;39.616;8.824;2023-04-01T08:35:45;20.50;56.60
66608;DHT22;53462;39.616;8.824;2023-04-01T08:39:04;20.10;55.90
66608;DHT22;53462;39.616;8.824;2023-04-01T08:41:39;20.10;56.50
66608;DHT22;53462;39.616;8.824;2023-04-01T08:45:03;21.00;55.00
66608;DHT22;53462;39.616;8.824;2023-04-01T08:50:26;20.30;53.90
66608;DHT22;53462;39.616;8.824;2023-04-01T09:07:57;18.70;54.50
66608;DHT22;53462;39.616;8.824;2023-04-01T09:27:46;21.30;50.60
66608;DHT22;53462;39.616;8.824;2023-04-01T09:36:11;21.30;48.00
66608;DHT22;53462;39.616;8.824;2023-04-01T09:44:36;21.90;47.40
66608;DHT22;53462;39.616;8.824;2023-04-01T09:47:57;21.30;47.40
66608;DHT22;53462;39.616;8.824;2023-04-01T09:53:36;21.00;49.00
66608;DHT22;53462;39.616;8.824;2023-04-01T10:05:04;20.00;47.70
66608;DHT22;53462;39.616;8.824;2023-04-01T11:28:18;22.10;46.00
66608;DHT22;53462;39.616;8.824;2023-04-01T11:33:38;22.80;44.50
66608;DHT22;53462;39.616;8.824;2023-04-01T11:42:53;22.60;44.80
66608;DHT22;53462;39.616;8.824;2023-04-01T11:46:10;22.30;45.90
66608;DHT22;53462;39.616;8.824;2023-04-01T11:51:43;22.00;46.50
66608;DHT22;53462;39.616;8.824;2023-04-01T11:54:44;22.60;46.40
66608;DHT22;53462;39.616;8.824;2023-04-01T12:08:51;21.20;49.20
66608;DHT22;53462;39.616;8.824;2023-04-01T12:11:41;21.30;48.30
66608;DHT22;53462;39.616;8.824;2023-04-01T12:14:33;21.50;49.60
66608;DHT22;53462;39.616;8.824;2023-04-01T12:17:04;22.10;48.60
66608;DHT22;53462;39.616;8.824;2023-04-01T12:19:48;21.90;48.40
66608;DHT22;53462;39.616;8.824;2023-04-01T12:28:20;21.00;48.00
66608;DHT22;53462;39.616;8.824;2023-04-01T12:33:51;21.60;46.80
66608;DHT22;53462;39.616;8.824;2023-04-01T12:50:37;22.20;46.10
66608;DHT22;53462;39.616;8.824;2023-04-01T12:55:51;22.00;46.60
66608;DHT22;53462;39.616;8.824;2023-04-01T13:07:10;21.80;48.40
66608;DHT22;53462;39.616;8.824;2023-04-01T13:17:49;20.70;49.20
66608;DHT22;53462;39.616;8.824;2023-04-01T13:40:56;21.20;49.70
66608;DHT22;53462;39.616;8.824;2023-04-01T13:43:39;21.00;49.60
66608;DHT22;53462;39.616;8.824;2023-04-01T13:49:20;20.50;50.40
66608;DHT22;53462;39.616;8.824;2023-04-01T14:05:52;19.20;54.00
66608;DHT22;53462;39.616;8.824;2023-04-01T14:08:36;19.10;54.20
66608;DHT22;53462;39.616;8.824;2023-04-01T14:17:13;19.40;53.90
66608;DHT22;53462;39.616;8.824;2023-04-01T14:20:17;19.30;55.70
66608;DHT22;53462;39.616;8.824;2023-04-01T14:22:57;19.10;56.30
66608;DHT22;53462;39.616;8.824;2023-04-01T14:47:43;18.30;58.50
66608;DHT22;53462;39.616;8.824;2023-04-01T14:50:22;18.30;59.40
66608;DHT22;53462;39.616;8.824;2023-04-01T14:52:57;18.10;60.10
66608;DHT22;53462;39.616;8.824;2023-04-01T14:55:50;18.50;59.80
66608;DHT22;53462;39.616;8.824;2023-04-01T14:58:17;18.40;59.00
66608;DHT22;53462;39.616;8.824;2023-04-01T15:00:52;18.40;59.60
66608;DHT22;53462;39.616;8.824;2023-04-01T15:03:33;18.40;58.80
66608;DHT22;53462;39.616;8.824;2023-04-01T15:06:21;18.20;59.40
66608;DHT22;53462;39.616;8.824;2023-04-01T15:09:03;18.30;59.40
66608;DHT22;53462;39.616;8.824;2023-04-01T15:20:51;18.00;59.80
66608;DHT22;53462;39.616;8.824;2023-04-01T15:25:34;17.30;61.90
66608;DHT22;53462;39.616;8.824;2023-04-01T15:41:39;16.70;65.50
66608;DHT22;53462;39.616;8.824;2023-04-01T15:50:28;16.40;65.40
66608;DHT22;53462;39.616;8.824;2023-04-01T15:53:25;16.70;63.60
66608;DHT22;53462;39.616;8.824;2023-04-01T16:10:16;16.40;63.10
66608;DHT22;53462;39.616;8.824;2023-04-01T16:15:46;16.60;62.90
66608;DHT22;53462;39.616;8.824;2023-04-01T16:23:53;16.20;64.20
66608;DHT22;53462;39.616;8.824;2023-04-01T16:34:30;15.80;65.70
66608;DHT22;53462;39.616;8.824;2023-04-01T16:37:05;15.80;66.30
66608;DHT22;53462;39.616;8.824;2023-04-01T16:42:32;15.80;66.60
66608;DHT22;53462;39.616;8.824;2023-04-01T16:47:36;15.90;66.80
66608;DHT22;53462;39.616;8.824;2023-04-01T16:50:21;15.80;67.50
66608;DHT22;53462;39.616;8.824;2023-04-01T16:55:55;15.60;68.80
66608;DHT22;53462;39.616;8.824;2023-04-01T17:01:26;15.50;69.90
66608;DHT22;53462;39.616;8.824;2023-04-01T17:04:07;15.60;70.10
66608;DHT22;53462;39.616;8.824;2023-04-01T17:06:47;15.40;70.90
66608;DHT22;53462;39.616;8.824;2023-04-01T17:14:33;15.10;71.90
66608;DHT22;53462;39.616;8.824;2023-04-01T17:20:14;15.20;72.40
66608;DHT22;53462;39.616;8.824;2023-04-01T17:23:09;15.20;73.00
66608;DHT22;53462;39.616;8.824;2023-04-01T17:34:12;15.00;74.30
66608;DHT22;53462;39.616;8.824;2023-04-01T17:44:57;15.10;74.70
66608;DHT22;53462;39.616;8.824;2023-04-01T17:58:30;14.90;75.80
66608;DHT22;53462;39.616;8.824;2023-04-01T18:01:16;14.90;76.10
66608;DHT22;53462;39.616;8.824;2023-04-01T18:06:29;14.80;76.30
66608;DHT22;53462;39.616;8.824;2023-04-01T18:22:58;14.50;76.90
66608;DHT22;53462;39.616;8.824;2023-04-01T18:25:46;14.60;76.60
66608;DHT22;53462;39.616;8.824;2023-04-01T18:38:49;14.50;77.70
66608;DHT22;53462;39.616;8.824;2023-04-01T18:41:30;14.30;78.10
66608;DHT22;53462;39.616;8.824;2023-04-01T18:46:48;14.20;79.20
66608;DHT22;53462;39.616;8.824;2023-04-01T18:55:23;14.10;79.90
66608;DHT22;53462;39.616;8.824;2023-04-01T18:57:51;14.10;80.00
66608;DHT22;53462;39.616;8.824;2023-04-01T19:00:25;14.10;79.90
66608;DHT22;53462;39.616;8.824;2023-04-01T19:05:45;14.00;79.90
66608;DHT22;53462;39.616;8.824;2023-04-01T19:08:22;14.00;80.20
66608;DHT22;53462;39.616;8.824;2023-04-01T19:13:40;13.90;81.00
66608;DHT22;53462;39.616;8.824;2023-04-01T19:19:09;13.80;81.80
66608;DHT22;53462;39.616;8.824;2023-04-01T19:21:44;13.70;81.80
66608;DHT22;53462;39.616;8.824;2023-04-01T19:27:25;13.80;82.10
66608;DHT22;53462;39.616;8.824;2023-04-01T19:46:33;13.40;83.70
66608;DHT22;53462;39.616;8.824;2023-04-01T19:49:04;13.30;84.30
66608;DHT22;53462;39.616;8.824;2023-04-01T19:51:39;13.20;84.60
66608;DHT22;53462;39.616;8.824;2023-04-01T20:05:30;13.40;84.40
66608;DHT22;53462;39.616;8.824;2023-04-01T20:08:25;13.40;84.00
66608;DHT22;53462;39.616;8.824;2023-04-01T20:16:10;13.40;84.10
66608;DHT22;53462;39.616;8.824;2023-04-01T20:21:24;13.20;84.70
66608;DHT22;53462;39.616;8.824;2023-04-01T20:24:41;13.20;85.20
66608;DHT22;53462;39.616;8.824;2023-04-01T20:26:59;13.20;85.20
66608;DHT22;53462;39.616;8.824;2023-04-01T20:30:00;13.10;85.50
66608;DHT22;53462;39.616;8.824;2023-04-01T20:32:53;13.00;86.00
66608;DHT22;53462;39.616;8.824;2023-04-01T20:38:23;12.90;86.60
66608;DHT22;53462;39.616;8.824;2023-04-01T20:41:10;12.80;86.70
66608;DHT22;53462;39.616;8.824;2023-04-01T20:52:34;12.50;88.00
66608;DHT22;53462;39.616;8.824;2023-04-01T21:06:14;12.30;89.10
66608;DHT22;53462;39.616;8.824;2023-04-01T21:08:56;12.30;89.80
66608;DHT22;53462;39.616;8.824;2023-04-01T21:11:40;12.10;90.10
66608;DHT22;53462;39.616;8.824;2023-04-01T21:19:41;12.10;91.40
66608;DHT22;53462;39.616;8.824;2023-04-01T21:33:23;11.90;92.90
66608;DHT22;53462;39.616;8.824;2023-04-01T21:39:02;11.80;94.20
66608;DHT22;53462;39.616;8.824;2023-04-01T22:00:42;11.40;96.60
66608;DHT22;53462;39.616;8.824;2023-04-01T22:03:38;11.30;97.70
66608;DHT22;53462;39.616;8.824;2023-04-01T22:06:31;11.30;98.60
66608;DHT22;53462;39.616;8.824;2023-04-01T22:11:56;11.30;99.00
66608;DHT22;53462;39.616;8.824;2023-04-01T22:14:28;11.40;99.00
66608;DHT22;53462;39.616;8.824;2023-04-01T22:17:05;11.40;98.80
66608;DHT22;53462;39.616;8.824;2023-04-01T22:22:24;11.50;99.00
66608;DHT22;53462;39.616;8.824;2023-04-01T22:25:14;11.60;98.60
66608;DHT22;53462;39.616;8.824;2023-04-01T22:43:44;12.30;96.20
66608;DHT22;53462;39.616;8.824;2023-04-01T22:49:21;12.50;95.10
66608;DHT22;53462;39.616;8.824;2023-04-01T22:52:03;12.50;94.70
66608;DHT22;53462;39.616;8.824;2023-04-01T22:54:50;12.60;94.60
66608;DHT22;53462;39.616;8.824;2023-04-01T22:57:40;12.60;94.70
66608;DHT22;53462;39.616;8.824;2023-04-01T23:00:19;12.60;94.60
66608;DHT22;53462;39.616;8.824;2023-04-01T23:05:40;12.60;94.70
66608;DHT22;53462;39.616;8.824;2023-04-01T23:11:04;12.60;94.70
66608;DHT22;53462;39.616;8.824;2023-04-01T23:13:36;12.50;95.00
66608;DHT22;53462;39.616;8.824;2023-04-01T23:16:06;12.30;95.70
66608;DHT22;53462;39.616;8.824;2023-04-01T23:24:07;11.60;99.90
66608;DHT22;53462;39.616;8.824;2023-04-01T23:27:17;11.60;99.90
66608;DHT22;53462;39.616;8.824;2023-04-01T23:29:45;11.60;99.90
66608;DHT22;53462;39.616;8.824;2023-04-01T23:32:22;11.70;99.90
66608;DHT22;53462;39.616;8.824;2023-04-01T23:34:57;11.60;99.90
66608;DHT22;53462;39.616;8.824;2023-04-01T23:37:25;11.80;99.90
66608;DHT22;53462;39.616;8.824;2023-04-01T23:39:54;11.70;99.90
66608;DHT22;53462;39.616;8.824;2023-04-01T23:42:32;11.60;99.90
66608;DHT22;53462;39.616;8.824;2023-04-01T23:45:11;11.60;99.90
66608;DHT22;53462;39.616;8.824;2023-04-01T23:47:39;11.70;99.90
66608;DHT22;53462;39.616;8.824;2023-04-01T23:50:18;11.70;99.90
66608;DHT22;53462;39.616;8.824;2023-04-01T23:52:48;11.80;99.90
